sensor_id;sensor_type;location;lat;lon;timestamp;P1;durP1;ratioP1;P2;durP2;ratioP2
77226;SDS011;66234;47.642;19.144;2023-01-16T00:01:53;112.55;;;32.20;;
77226;SDS011;66234;47.642;19.144;2023-01-16T00:04:57;111.55;;;32.15;;
77226;SDS011;66234;47.642;19.144;2023-01-16T00:08:00;116.65;;;34.97;;
77226;SDS011;66234;47.642;19.144;2023-01-16T00:11:02;90.47;;;32.60;;
77226;SDS011;66234;47.642;19.144;2023-01-16T00:14:05;90.63;;;34.63;;
77226;SDS011;66234;47.642;19.144;2023-01-16T00:17:08;76.75;;;32.00;;
77226;SDS011;66234;47.642;19.144;2023-01-16T00:20:11;82.75;;;33.42;;
77226;SDS011;66234;47.642;19.144;2023-01-16T00:23:13;70.45;;;32.75;;
77226;SDS011;66234;47.642;19.144;2023-01-16T00:26:16;74.50;;;34.10;;
77226;SDS011;66234;47.642;19.144;2023-01-16T00:29:18;68.60;;;32.93;;
77226;SDS011;66234;47.642;19.144;2023-01-16T00:32:21;67.72;;;33.60;;
77226;SDS011;66234;47.642;19.144;2023-01-16T00:35:24;70.35;;;31.27;;
77226;SDS011;66234;47.642;19.144;2023-01-16T00:38:28;64.80;;;30.52;;
77226;SDS011;66234;47.642;19.144;2023-01-16T00:41:31;71.87;;;34.10;;
77226;SDS011;66234;47.642;19.144;2023-01-16T00:44:34;81.20;;;34.87;;
77226;SDS011;66234;47.642;19.144;2023-01-16T00:47:37;93.28;;;34.55;;
77226;SDS011;66234;47.642;19.144;2023-01-16T00:50:39;93.90;;;34.45;;
77226;SDS011;66234;47.642;19.144;2023-01-16T00:53:42;96.57;;;36.80;;
77226;SDS011;66234;47.642;19.144;2023-01-16T00:56:44;110.17;;;39.50;;
77226;SDS011;66234;47.642;19.144;2023-01-16T00:59:47;100.27;;;34.37;;
77226;SDS011;66234;47.642;19.144;2023-01-16T01:02:49;96.97;;;34.45;;
77226;SDS011;66234;47.642;19.144;2023-01-16T01:05:53;107.55;;;34.40;;
77226;SDS011;66234;47.642;19.144;2023-01-16T01:08:55;110.22;;;34.58;;
77226;SDS011;66234;47.642;19.144;2023-01-16T01:11:58;135.17;;;37.37;;
77226;SDS011;66234;47.642;19.144;2023-01-16T01:15:01;113.17;;;33.97;;
77226;SDS011;66234;47.642;19.144;2023-01-16T01:18:04;137.75;;;32.88;;
77226;SDS011;66234;47.642;19.144;2023-01-16T01:21:08;106.50;;;33.67;;
77226;SDS011;66234;47.642;19.144;2023-01-16T01:24:11;110.05;;;35.45;;
77226;SDS011;66234;47.642;19.144;2023-01-16T01:27:14;92.03;;;32.67;;
77226;SDS011;66234;47.642;19.144;2023-01-16T01:30:17;107.77;;;31.57;;
77226;SDS011;66234;47.642;19.144;2023-01-16T01:33:19;86.22;;;31.73;;
77226;SDS011;66234;47.642;19.144;2023-01-16T01:36:22;80.07;;;29.95;;
77226;SDS011;66234;47.642;19.144;2023-01-16T01:39:24;96.18;;;32.20;;
77226;SDS011;66234;47.642;19.144;2023-01-16T01:42:27;89.97;;;33.90;;
77226;SDS011;66234;47.642;19.144;2023-01-16T01:45:48;95.40;;;31.70;;
77226;SDS011;66234;47.642;19.144;2023-01-16T01:49:05;91.38;;;30.48;;
77226;SDS011;66234;47.642;19.144;2023-01-16T01:52:23;82.45;;;29.80;;
77226;SDS011;66234;47.642;19.144;2023-01-16T01:55:28;83.22;;;28.90;;
77226;SDS011;66234;47.642;19.144;2023-01-16T01:58:31;69.67;;;29.13;;
77226;SDS011;66234;47.642;19.144;2023-01-16T02:01:35;77.10;;;28.70;;
77226;SDS011;66234;47.642;19.144;2023-01-16T02:04:40;63.88;;;28.85;;
77226;SDS011;66234;47.642;19.144;2023-01-16T02:07:45;68.55;;;29.15;;
77226;SDS011;66234;47.642;19.144;2023-01-16T02:10:51;73.70;;;29.35;;
77226;SDS011;66234;47.642;19.144;2023-01-16T02:14:00;65.50;;;31.07;;
77226;SDS011;66234;47.642;19.144;2023-01-16T02:17:16;74.70;;;30.47;;
77226;SDS011;66234;47.642;19.144;2023-01-16T02:20:50;64.78;;;30.13;;
77226;SDS011;66234;47.642;19.144;2023-01-16T02:37:32;57.25;;;27.73;;
77226;SDS011;66234;47.642;19.144;2023-01-16T02:51:36;72.03;;;29.43;;
77226;SDS011;66234;47.642;19.144;2023-01-16T02:54:56;58.53;;;27.48;;
77226;SDS011;66234;47.642;19.144;2023-01-16T02:58:01;59.75;;;28.00;;
77226;SDS011;66234;47.642;19.144;2023-01-16T03:01:07;63.55;;;29.58;;
77226;SDS011;66234;47.642;19.144;2023-01-16T03:11:21;60.92;;;27.55;;
77226;SDS011;66234;47.642;19.144;2023-01-16T03:17:39;54.85;;;26.30;;
77226;SDS011;66234;47.642;19.144;2023-01-16T03:20:57;57.80;;;26.77;;
77226;SDS011;66234;47.642;19.144;2023-01-16T03:30:51;52.83;;;25.17;;
77226;SDS011;66234;47.642;19.144;2023-01-16T03:37:17;49.13;;;24.17;;
77226;SDS011;66234;47.642;19.144;2023-01-16T03:40:31;46.77;;;22.67;;
77226;SDS011;66234;47.642;19.144;2023-01-16T03:43:38;52.03;;;23.92;;
77226;SDS011;66234;47.642;19.144;2023-01-16T03:46:42;47.58;;;22.92;;
77226;SDS011;66234;47.642;19.144;2023-01-16T03:49:51;50.47;;;22.52;;
77226;SDS011;66234;47.642;19.144;2023-01-16T03:53:03;46.90;;;22.97;;
77226;SDS011;66234;47.642;19.144;2023-01-16T03:56:12;45.13;;;23.67;;
77226;SDS011;66234;47.642;19.144;2023-01-16T03:59:24;51.22;;;24.25;;
77226;SDS011;66234;47.642;19.144;2023-01-16T04:02:30;44.25;;;21.60;;
77226;SDS011;66234;47.642;19.144;2023-01-16T04:05:36;49.17;;;23.40;;
77226;SDS011;66234;47.642;19.144;2023-01-16T04:08:48;43.87;;;23.20;;
77226;SDS011;66234;47.642;19.144;2023-01-16T04:11:53;50.73;;;22.70;;
77226;SDS011;66234;47.642;19.144;2023-01-16T04:14:58;55.13;;;24.33;;
77226;SDS011;66234;47.642;19.144;2023-01-16T04:18:04;53.03;;;25.65;;
77226;SDS011;66234;47.642;19.144;2023-01-16T04:21:06;48.85;;;23.67;;
77226;SDS011;66234;47.642;19.144;2023-01-16T04:24:10;52.17;;;23.00;;
77226;SDS011;66234;47.642;19.144;2023-01-16T04:27:13;51.97;;;24.53;;
77226;SDS011;66234;47.642;19.144;2023-01-16T04:30:15;49.70;;;25.50;;
77226;SDS011;66234;47.642;19.144;2023-01-16T04:33:18;46.90;;;25.00;;
77226;SDS011;66234;47.642;19.144;2023-01-16T04:36:21;49.97;;;24.50;;
77226;SDS011;66234;47.642;19.144;2023-01-16T04:39:24;50.07;;;24.97;;
77226;SDS011;66234;47.642;19.144;2023-01-16T04:42:26;48.40;;;23.83;;
77226;SDS011;66234;47.642;19.144;2023-01-16T04:45:29;46.42;;;24.50;;
77226;SDS011;66234;47.642;19.144;2023-01-16T04:48:32;44.90;;;23.40;;
77226;SDS011;66234;47.642;19.144;2023-01-16T04:51:35;42.35;;;21.45;;
77226;SDS011;66234;47.642;19.144;2023-01-16T04:54:38;43.33;;;22.23;;
77226;SDS011;66234;47.642;19.144;2023-01-16T04:57:41;47.73;;;23.60;;
77226;SDS011;66234;47.642;19.144;2023-01-16T05:00:44;48.00;;;22.92;;
77226;SDS011;66234;47.642;19.144;2023-01-16T05:03:46;44.33;;;21.52;;
77226;SDS011;66234;47.642;19.144;2023-01-16T05:06:49;47.03;;;23.90;;
77226;SDS011;66234;47.642;19.144;2023-01-16T05:09:53;44.53;;;21.43;;
77226;SDS011;66234;47.642;19.144;2023-01-16T05:12:56;47.57;;;22.43;;
77226;SDS011;66234;47.642;19.144;2023-01-16T05:15:58;46.50;;;22.88;;
77226;SDS011;66234;47.642;19.144;2023-01-16T05:19:01;46.58;;;21.85;;
77226;SDS011;66234;47.642;19.144;2023-01-16T05:22:03;43.75;;;20.67;;
77226;SDS011;66234;47.642;19.144;2023-01-16T05:25:06;41.43;;;19.43;;
77226;SDS011;66234;47.642;19.144;2023-01-16T05:28:09;39.47;;;17.57;;
77226;SDS011;66234;47.642;19.144;2023-01-16T05:31:13;39.40;;;15.40;;
77226;SDS011;66234;47.642;19.144;2023-01-16T05:34:15;47.92;;;17.98;;
77226;SDS011;66234;47.642;19.144;2023-01-16T05:37:18;48.42;;;17.33;;
77226;SDS011;66234;47.642;19.144;2023-01-16T05:40:20;40.47;;;16.50;;
77226;SDS011;66234;47.642;19.144;2023-01-16T05:43:23;39.93;;;15.70;;
77226;SDS011;66234;47.642;19.144;2023-01-16T05:46:26;42.42;;;16.98;;
77226;SDS011;66234;47.642;19.144;2023-01-16T05:49:28;40.28;;;15.18;;
77226;SDS011;66234;47.642;19.144;2023-01-16T05:52:31;35.65;;;15.88;;
77226;SDS011;66234;47.642;19.144;2023-01-16T05:55:43;34.23;;;14.57;;
77226;SDS011;66234;47.642;19.144;2023-01-16T05:58:47;31.20;;;14.37;;
77226;SDS011;66234;47.642;19.144;2023-01-16T06:01:50;32.03;;;14.52;;
77226;SDS011;66234;47.642;19.144;2023-01-16T06:04:52;31.42;;;13.68;;
77226;SDS011;66234;47.642;19.144;2023-01-16T06:07:55;34.80;;;14.30;;
77226;SDS011;66234;47.642;19.144;2023-01-16T06:11:00;27.27;;;14.63;;
77226;SDS011;66234;47.642;19.144;2023-01-16T06:14:03;27.67;;;15.13;;
77226;SDS011;66234;47.642;19.144;2023-01-16T06:17:06;28.38;;;13.65;;
77226;SDS011;66234;47.642;19.144;2023-01-16T06:20:10;27.90;;;13.65;;
77226;SDS011;66234;47.642;19.144;2023-01-16T06:23:13;27.02;;;14.00;;
77226;SDS011;66234;47.642;19.144;2023-01-16T06:26:15;30.77;;;14.50;;
77226;SDS011;66234;47.642;19.144;2023-01-16T06:29:19;29.27;;;14.63;;
77226;SDS011;66234;47.642;19.144;2023-01-16T06:32:21;30.00;;;14.02;;
77226;SDS011;66234;47.642;19.144;2023-01-16T06:35:24;28.52;;;14.57;;
77226;SDS011;66234;47.642;19.144;2023-01-16T06:38:26;27.98;;;13.82;;
77226;SDS011;66234;47.642;19.144;2023-01-16T06:41:29;27.53;;;14.17;;
77226;SDS011;66234;47.642;19.144;2023-01-16T06:44:32;32.67;;;15.87;;
77226;SDS011;66234;47.642;19.144;2023-01-16T06:47:35;33.65;;;15.40;;
77226;SDS011;66234;47.642;19.144;2023-01-16T06:50:37;25.90;;;14.20;;
77226;SDS011;66234;47.642;19.144;2023-01-16T06:53:40;26.67;;;13.90;;
77226;SDS011;66234;47.642;19.144;2023-01-16T06:56:43;34.33;;;14.40;;
77226;SDS011;66234;47.642;19.144;2023-01-16T06:59:45;32.67;;;15.13;;
77226;SDS011;66234;47.642;19.144;2023-01-16T07:02:55;42.80;;;20.27;;
77226;SDS011;66234;47.642;19.144;2023-01-16T07:05:58;36.60;;;16.85;;
77226;SDS011;66234;47.642;19.144;2023-01-16T07:09:01;30.85;;;14.55;;
77226;SDS011;66234;47.642;19.144;2023-01-16T07:12:04;25.07;;;13.10;;
77226;SDS011;66234;47.642;19.144;2023-01-16T07:15:07;26.77;;;13.40;;
77226;SDS011;66234;47.642;19.144;2023-01-16T07:18:29;26.13;;;13.77;;
77226;SDS011;66234;47.642;19.144;2023-01-16T07:21:50;29.60;;;16.23;;
77226;SDS011;66234;47.642;19.144;2023-01-16T07:25:21;23.02;;;14.23;;
77226;SDS011;66234;47.642;19.144;2023-01-16T07:28:37;26.90;;;12.70;;
77226;SDS011;66234;47.642;19.144;2023-01-16T07:31:41;26.93;;;12.30;;
77226;SDS011;66234;47.642;19.144;2023-01-16T07:34:45;25.50;;;13.02;;
77226;SDS011;66234;47.642;19.144;2023-01-16T07:37:48;26.30;;;11.75;;
77226;SDS011;66234;47.642;19.144;2023-01-16T07:40:50;22.27;;;12.18;;
77226;SDS011;66234;47.642;19.144;2023-01-16T07:43:53;24.50;;;12.83;;
77226;SDS011;66234;47.642;19.144;2023-01-16T07:46:55;23.17;;;11.77;;
77226;SDS011;66234;47.642;19.144;2023-01-16T07:49:58;22.05;;;12.48;;
77226;SDS011;66234;47.642;19.144;2023-01-16T07:53:03;24.83;;;13.45;;
77226;SDS011;66234;47.642;19.144;2023-01-16T07:56:05;21.08;;;10.75;;
77226;SDS011;66234;47.642;19.144;2023-01-16T07:59:08;26.47;;;15.13;;
77226;SDS011;66234;47.642;19.144;2023-01-16T08:02:11;21.80;;;10.73;;
77226;SDS011;66234;47.642;19.144;2023-01-16T08:05:13;35.03;;;14.68;;
77226;SDS011;66234;47.642;19.144;2023-01-16T08:08:16;25.23;;;11.77;;
77226;SDS011;66234;47.642;19.144;2023-01-16T08:11:20;19.85;;;9.90;;
77226;SDS011;66234;47.642;19.144;2023-01-16T08:14:37;22.97;;;11.23;;
77226;SDS011;66234;47.642;19.144;2023-01-16T08:17:41;22.83;;;10.87;;
77226;SDS011;66234;47.642;19.144;2023-01-16T08:20:44;21.20;;;10.38;;
77226;SDS011;66234;47.642;19.144;2023-01-16T08:23:47;19.60;;;9.60;;
77226;SDS011;66234;47.642;19.144;2023-01-16T08:26:49;21.13;;;9.57;;
77226;SDS011;66234;47.642;19.144;2023-01-16T08:29:52;21.67;;;9.80;;
77226;SDS011;66234;47.642;19.144;2023-01-16T08:32:58;20.20;;;9.80;;
77226;SDS011;66234;47.642;19.144;2023-01-16T08:36:02;22.52;;;11.38;;
77226;SDS011;66234;47.642;19.144;2023-01-16T08:39:07;25.27;;;13.48;;
77226;SDS011;66234;47.642;19.144;2023-01-16T08:42:11;30.42;;;14.07;;
77226;SDS011;66234;47.642;19.144;2023-01-16T08:45:33;28.60;;;13.97;;
77226;SDS011;66234;47.642;19.144;2023-01-16T08:48:55;23.57;;;12.33;;
77226;SDS011;66234;47.642;19.144;2023-01-16T08:52:16;27.55;;;13.18;;
77226;SDS011;66234;47.642;19.144;2023-01-16T08:55:19;30.13;;;12.60;;
77226;SDS011;66234;47.642;19.144;2023-01-16T08:58:21;29.83;;;13.85;;
77226;SDS011;66234;47.642;19.144;2023-01-16T09:01:24;29.27;;;13.50;;
77226;SDS011;66234;47.642;19.144;2023-01-16T09:04:29;30.60;;;13.67;;
77226;SDS011;66234;47.642;19.144;2023-01-16T09:07:31;26.10;;;13.18;;
77226;SDS011;66234;47.642;19.144;2023-01-16T09:10:34;24.33;;;13.07;;
77226;SDS011;66234;47.642;19.144;2023-01-16T09:13:37;24.48;;;11.20;;
77226;SDS011;66234;47.642;19.144;2023-01-16T09:16:52;26.57;;;11.87;;
77226;SDS011;66234;47.642;19.144;2023-01-16T09:19:55;24.70;;;12.03;;
77226;SDS011;66234;47.642;19.144;2023-01-16T09:22:58;26.88;;;13.02;;
77226;SDS011;66234;47.642;19.144;2023-01-16T09:26:02;25.10;;;12.18;;
77226;SDS011;66234;47.642;19.144;2023-01-16T09:29:05;28.23;;;12.77;;
77226;SDS011;66234;47.642;19.144;2023-01-16T09:32:09;25.93;;;12.97;;
77226;SDS011;66234;47.642;19.144;2023-01-16T09:35:13;29.17;;;14.03;;
77226;SDS011;66234;47.642;19.144;2023-01-16T09:38:16;31.13;;;14.30;;
77226;SDS011;66234;47.642;19.144;2023-01-16T09:41:18;30.30;;;14.27;;
77226;SDS011;66234;47.642;19.144;2023-01-16T09:44:41;29.17;;;13.35;;
77226;SDS011;66234;47.642;19.144;2023-01-16T09:47:50;30.20;;;15.33;;
77226;SDS011;66234;47.642;19.144;2023-01-16T09:51:07;32.13;;;14.10;;
77226;SDS011;66234;47.642;19.144;2023-01-16T09:54:16;27.85;;;14.10;;
77226;SDS011;66234;47.642;19.144;2023-01-16T09:57:42;31.00;;;13.65;;
77226;SDS011;66234;47.642;19.144;2023-01-16T10:04:20;29.63;;;13.70;;
77226;SDS011;66234;47.642;19.144;2023-01-16T10:10:54;28.30;;;13.77;;
77226;SDS011;66234;47.642;19.144;2023-01-16T10:14:10;34.80;;;14.20;;
77226;SDS011;66234;47.642;19.144;2023-01-16T10:21:07;26.08;;;12.32;;
77226;SDS011;66234;47.642;19.144;2023-01-16T10:24:25;31.63;;;15.70;;
77226;SDS011;66234;47.642;19.144;2023-01-16T10:27:54;29.93;;;14.20;;
77226;SDS011;66234;47.642;19.144;2023-01-16T10:31:03;33.40;;;14.13;;
77226;SDS011;66234;47.642;19.144;2023-01-16T10:34:14;35.40;;;15.20;;
77226;SDS011;66234;47.642;19.144;2023-01-16T10:37:24;41.33;;;16.05;;
77226;SDS011;66234;47.642;19.144;2023-01-16T10:40:27;39.40;;;15.57;;
77226;SDS011;66234;47.642;19.144;2023-01-16T10:43:35;33.77;;;13.80;;
77226;SDS011;66234;47.642;19.144;2023-01-16T10:47:00;36.28;;;14.20;;
77226;SDS011;66234;47.642;19.144;2023-01-16T10:50:23;33.67;;;15.20;;
77226;SDS011;66234;47.642;19.144;2023-01-16T10:53:38;32.25;;;14.60;;
77226;SDS011;66234;47.642;19.144;2023-01-16T10:56:41;32.93;;;15.67;;
77226;SDS011;66234;47.642;19.144;2023-01-16T10:59:44;30.30;;;13.60;;
77226;SDS011;66234;47.642;19.144;2023-01-16T11:02:49;30.38;;;14.05;;
77226;SDS011;66234;47.642;19.144;2023-01-16T11:05:54;29.92;;;13.25;;
77226;SDS011;66234;47.642;19.144;2023-01-16T11:12:22;36.23;;;14.37;;
77226;SDS011;66234;47.642;19.144;2023-01-16T11:15:59;28.73;;;13.80;;
77226;SDS011;66234;47.642;19.144;2023-01-16T11:19:41;31.98;;;12.98;;
77226;SDS011;66234;47.642;19.144;2023-01-16T11:22:50;32.53;;;14.55;;
77226;SDS011;66234;47.642;19.144;2023-01-16T11:26:00;31.83;;;13.90;;
77226;SDS011;66234;47.642;19.144;2023-01-16T11:29:03;34.50;;;14.27;;
77226;SDS011;66234;47.642;19.144;2023-01-16T11:32:08;36.43;;;14.27;;
77226;SDS011;66234;47.642;19.144;2023-01-16T11:35:14;41.95;;;15.00;;
77226;SDS011;66234;47.642;19.144;2023-01-16T11:38:19;36.33;;;13.90;;
77226;SDS011;66234;47.642;19.144;2023-01-16T11:41:28;38.17;;;15.93;;
77226;SDS011;66234;47.642;19.144;2023-01-16T11:44:34;37.50;;;14.97;;
77226;SDS011;66234;47.642;19.144;2023-01-16T11:47:56;33.50;;;14.40;;
77226;SDS011;66234;47.642;19.144;2023-01-16T11:51:05;41.45;;;16.38;;
77226;SDS011;66234;47.642;19.144;2023-01-16T11:54:12;31.42;;;14.73;;
77226;SDS011;66234;47.642;19.144;2023-01-16T11:57:21;36.83;;;15.13;;
77226;SDS011;66234;47.642;19.144;2023-01-16T12:04:06;37.23;;;14.93;;
77226;SDS011;66234;47.642;19.144;2023-01-16T12:07:20;37.63;;;16.35;;
77226;SDS011;66234;47.642;19.144;2023-01-16T12:14:11;37.03;;;16.02;;
77226;SDS011;66234;47.642;19.144;2023-01-16T12:17:41;33.17;;;15.67;;
77226;SDS011;66234;47.642;19.144;2023-01-16T12:21:02;37.13;;;16.47;;
77226;SDS011;66234;47.642;19.144;2023-01-16T12:24:31;39.13;;;16.48;;
77226;SDS011;66234;47.642;19.144;2023-01-16T12:31:13;37.90;;;16.10;;
77226;SDS011;66234;47.642;19.144;2023-01-16T12:40:51;34.13;;;16.17;;
77226;SDS011;66234;47.642;19.144;2023-01-16T12:51:40;31.17;;;14.20;;
77226;SDS011;66234;47.642;19.144;2023-01-16T12:55:14;26.57;;;12.40;;
77226;SDS011;66234;47.642;19.144;2023-01-16T12:58:27;29.67;;;14.40;;
77226;SDS011;66234;47.642;19.144;2023-01-16T13:01:36;29.52;;;14.10;;
77226;SDS011;66234;47.642;19.144;2023-01-16T13:04:42;28.13;;;13.10;;
77226;SDS011;66234;47.642;19.144;2023-01-16T13:07:52;28.17;;;13.93;;
77226;SDS011;66234;47.642;19.144;2023-01-16T13:11:05;38.43;;;14.87;;
77226;SDS011;66234;47.642;19.144;2023-01-16T13:14:33;29.15;;;13.43;;
77226;SDS011;66234;47.642;19.144;2023-01-16T13:17:47;27.58;;;13.13;;
77226;SDS011;66234;47.642;19.144;2023-01-16T13:20:57;30.60;;;14.43;;
77226;SDS011;66234;47.642;19.144;2023-01-16T13:27:20;31.90;;;15.70;;
77226;SDS011;66234;47.642;19.144;2023-01-16T13:30:27;35.88;;;17.45;;
77226;SDS011;66234;47.642;19.144;2023-01-16T13:33:31;37.45;;;16.67;;
77226;SDS011;66234;47.642;19.144;2023-01-16T13:43:21;32.93;;;15.87;;
77226;SDS011;66234;47.642;19.144;2023-01-16T13:46:49;34.42;;;16.95;;
77226;SDS011;66234;47.642;19.144;2023-01-16T13:49:53;37.35;;;17.33;;
77226;SDS011;66234;47.642;19.144;2023-01-16T13:52:59;35.38;;;15.95;;
77226;SDS011;66234;47.642;19.144;2023-01-16T14:06:23;31.75;;;15.93;;
77226;SDS011;66234;47.642;19.144;2023-01-16T14:09:27;33.28;;;17.00;;
77226;SDS011;66234;47.642;19.144;2023-01-16T14:12:33;37.93;;;16.73;;
77226;SDS011;66234;47.642;19.144;2023-01-16T14:22:19;29.77;;;15.05;;
77226;SDS011;66234;47.642;19.144;2023-01-16T14:25:23;28.48;;;14.93;;
77226;SDS011;66234;47.642;19.144;2023-01-16T14:28:26;29.97;;;13.80;;
77226;SDS011;66234;47.642;19.144;2023-01-16T14:31:35;30.03;;;15.73;;
77226;SDS011;66234;47.642;19.144;2023-01-16T14:41:14;30.75;;;15.40;;
77226;SDS011;66234;47.642;19.144;2023-01-16T14:51:53;36.10;;;16.25;;
77226;SDS011;66234;47.642;19.144;2023-01-16T14:55:20;31.08;;;17.27;;
77226;SDS011;66234;47.642;19.144;2023-01-16T14:58:35;31.50;;;15.98;;
77226;SDS011;66234;47.642;19.144;2023-01-16T15:01:47;32.03;;;15.60;;
77226;SDS011;66234;47.642;19.144;2023-01-16T15:05:33;33.23;;;16.13;;
77226;SDS011;66234;47.642;19.144;2023-01-16T15:08:53;33.50;;;16.92;;
77226;SDS011;66234;47.642;19.144;2023-01-16T15:11:57;31.23;;;17.50;;
77226;SDS011;66234;47.642;19.144;2023-01-16T15:15:01;30.25;;;15.52;;
77226;SDS011;66234;47.642;19.144;2023-01-16T15:18:04;27.00;;;14.43;;
77226;SDS011;66234;47.642;19.144;2023-01-16T15:21:25;27.33;;;14.17;;
77226;SDS011;66234;47.642;19.144;2023-01-16T15:24:49;23.75;;;11.80;;
77226;SDS011;66234;47.642;19.144;2023-01-16T15:31:37;27.55;;;14.20;;
77226;SDS011;66234;47.642;19.144;2023-01-16T15:34:42;27.67;;;13.80;;
77226;SDS011;66234;47.642;19.144;2023-01-16T15:37:51;35.97;;;17.93;;
77226;SDS011;66234;47.642;19.144;2023-01-16T15:40:55;34.42;;;17.13;;
77226;SDS011;66234;47.642;19.144;2023-01-16T15:43:59;27.58;;;15.13;;
77226;SDS011;66234;47.642;19.144;2023-01-16T15:51:01;39.30;;;17.63;;
77226;SDS011;66234;47.642;19.144;2023-01-16T15:54:11;34.97;;;17.23;;
77226;SDS011;66234;47.642;19.144;2023-01-16T15:57:16;27.73;;;14.98;;
77226;SDS011;66234;47.642;19.144;2023-01-16T16:00:25;28.70;;;15.60;;
77226;SDS011;66234;47.642;19.144;2023-01-16T16:03:47;28.38;;;14.70;;
77226;SDS011;66234;47.642;19.144;2023-01-16T16:06:51;27.63;;;14.03;;
77226;SDS011;66234;47.642;19.144;2023-01-16T16:09:56;39.00;;;19.47;;
77226;SDS011;66234;47.642;19.144;2023-01-16T16:13:03;35.63;;;17.90;;
77226;SDS011;66234;47.642;19.144;2023-01-16T16:16:17;39.35;;;17.77;;
77226;SDS011;66234;47.642;19.144;2023-01-16T16:19:41;37.80;;;18.98;;
77226;SDS011;66234;47.642;19.144;2023-01-16T16:22:43;38.43;;;17.70;;
77226;SDS011;66234;47.642;19.144;2023-01-16T16:28:54;34.63;;;17.33;;
77226;SDS011;66234;47.642;19.144;2023-01-16T16:32:00;36.85;;;17.38;;
77226;SDS011;66234;47.642;19.144;2023-01-16T16:35:04;32.95;;;15.73;;
77226;SDS011;66234;47.642;19.144;2023-01-16T16:38:16;32.67;;;16.87;;
77226;SDS011;66234;47.642;19.144;2023-01-16T16:41:42;34.03;;;16.20;;
77226;SDS011;66234;47.642;19.144;2023-01-16T16:48:28;36.45;;;16.58;;
77226;SDS011;66234;47.642;19.144;2023-01-16T16:51:32;36.28;;;17.95;;
77226;SDS011;66234;47.642;19.144;2023-01-16T16:54:35;39.97;;;18.27;;
77226;SDS011;66234;47.642;19.144;2023-01-16T16:57:41;42.10;;;19.00;;
77226;SDS011;66234;47.642;19.144;2023-01-16T17:00:45;35.35;;;18.92;;
77226;SDS011;66234;47.642;19.144;2023-01-16T17:03:50;39.17;;;19.08;;
77226;SDS011;66234;47.642;19.144;2023-01-16T17:06:56;39.13;;;19.98;;
77226;SDS011;66234;47.642;19.144;2023-01-16T17:09:59;48.47;;;23.33;;
77226;SDS011;66234;47.642;19.144;2023-01-16T17:13:02;33.90;;;17.97;;
77226;SDS011;66234;47.642;19.144;2023-01-16T17:16:05;46.38;;;21.27;;
77226;SDS011;66234;47.642;19.144;2023-01-16T17:19:16;37.97;;;19.10;;
77226;SDS011;66234;47.642;19.144;2023-01-16T17:22:21;35.30;;;18.27;;
77226;SDS011;66234;47.642;19.144;2023-01-16T17:25:24;43.77;;;21.20;;
77226;SDS011;66234;47.642;19.144;2023-01-16T17:28:28;36.83;;;18.03;;
77226;SDS011;66234;47.642;19.144;2023-01-16T17:31:30;42.53;;;19.48;;
77226;SDS011;66234;47.642;19.144;2023-01-16T17:34:33;39.58;;;19.67;;
77226;SDS011;66234;47.642;19.144;2023-01-16T17:37:36;34.97;;;18.20;;
77226;SDS011;66234;47.642;19.144;2023-01-16T17:40:39;34.63;;;17.40;;
77226;SDS011;66234;47.642;19.144;2023-01-16T17:43:42;33.07;;;17.30;;
77226;SDS011;66234;47.642;19.144;2023-01-16T17:47:03;38.97;;;18.38;;
77226;SDS011;66234;47.642;19.144;2023-01-16T17:50:06;35.17;;;18.42;;
77226;SDS011;66234;47.642;19.144;2023-01-16T17:53:26;37.17;;;17.50;;
77226;SDS011;66234;47.642;19.144;2023-01-16T17:56:30;33.97;;;16.20;;
77226;SDS011;66234;47.642;19.144;2023-01-16T17:59:32;34.60;;;17.43;;
77226;SDS011;66234;47.642;19.144;2023-01-16T18:02:35;40.38;;;18.95;;
77226;SDS011;66234;47.642;19.144;2023-01-16T18:05:38;43.90;;;20.23;;
77226;SDS011;66234;47.642;19.144;2023-01-16T18:08:41;36.65;;;17.98;;
77226;SDS011;66234;47.642;19.144;2023-01-16T18:11:44;37.00;;;18.73;;
77226;SDS011;66234;47.642;19.144;2023-01-16T18:15:05;43.67;;;21.13;;
77226;SDS011;66234;47.642;19.144;2023-01-16T18:18:43;42.75;;;21.38;;
77226;SDS011;66234;47.642;19.144;2023-01-16T18:21:46;43.70;;;19.80;;
77226;SDS011;66234;47.642;19.144;2023-01-16T18:25:04;36.88;;;18.48;;
77226;SDS011;66234;47.642;19.144;2023-01-16T18:28:08;44.53;;;20.83;;
77226;SDS011;66234;47.642;19.144;2023-01-16T18:31:11;45.47;;;20.43;;
77226;SDS011;66234;47.642;19.144;2023-01-16T18:34:13;45.50;;;21.00;;
77226;SDS011;66234;47.642;19.144;2023-01-16T18:37:16;47.92;;;22.05;;
77226;SDS011;66234;47.642;19.144;2023-01-16T18:40:20;44.97;;;19.58;;
77226;SDS011;66234;47.642;19.144;2023-01-16T18:43:41;45.53;;;19.93;;
77226;SDS011;66234;47.642;19.144;2023-01-16T18:47:02;41.97;;;19.67;;
77226;SDS011;66234;47.642;19.144;2023-01-16T18:50:23;43.70;;;19.52;;
77226;SDS011;66234;47.642;19.144;2023-01-16T18:53:47;41.15;;;19.17;;
77226;SDS011;66234;47.642;19.144;2023-01-16T18:57:12;39.05;;;18.83;;
77226;SDS011;66234;47.642;19.144;2023-01-16T19:00:39;38.43;;;19.60;;
77226;SDS011;66234;47.642;19.144;2023-01-16T19:04:00;40.33;;;19.70;;
77226;SDS011;66234;47.642;19.144;2023-01-16T19:07:07;41.35;;;19.85;;
77226;SDS011;66234;47.642;19.144;2023-01-16T19:10:22;48.78;;;21.17;;
77226;SDS011;66234;47.642;19.144;2023-01-16T19:13:27;43.75;;;21.17;;
77226;SDS011;66234;47.642;19.144;2023-01-16T19:16:39;40.43;;;18.73;;
77226;SDS011;66234;47.642;19.144;2023-01-16T19:19:47;38.13;;;18.83;;
77226;SDS011;66234;47.642;19.144;2023-01-16T19:22:51;44.30;;;19.48;;
77226;SDS011;66234;47.642;19.144;2023-01-16T19:25:56;41.45;;;18.05;;
77226;SDS011;66234;47.642;19.144;2023-01-16T19:28:59;37.38;;;18.52;;
77226;SDS011;66234;47.642;19.144;2023-01-16T19:32:03;43.03;;;20.93;;
77226;SDS011;66234;47.642;19.144;2023-01-16T19:35:07;43.63;;;19.17;;
77226;SDS011;66234;47.642;19.144;2023-01-16T19:38:11;42.08;;;19.42;;
77226;SDS011;66234;47.642;19.144;2023-01-16T19:41:14;41.35;;;20.20;;
77226;SDS011;66234;47.642;19.144;2023-01-16T19:44:36;46.15;;;22.17;;
77226;SDS011;66234;47.642;19.144;2023-01-16T19:47:57;44.97;;;20.73;;
77226;SDS011;66234;47.642;19.144;2023-01-16T19:51:01;38.47;;;19.13;;
77226;SDS011;66234;47.642;19.144;2023-01-16T19:54:04;47.17;;;19.73;;
77226;SDS011;66234;47.642;19.144;2023-01-16T19:57:07;39.38;;;18.38;;
77226;SDS011;66234;47.642;19.144;2023-01-16T20:00:10;37.50;;;17.30;;
77226;SDS011;66234;47.642;19.144;2023-01-16T20:03:14;33.30;;;16.03;;
77226;SDS011;66234;47.642;19.144;2023-01-16T20:06:16;31.37;;;15.77;;
77226;SDS011;66234;47.642;19.144;2023-01-16T20:09:20;37.00;;;17.63;;
77226;SDS011;66234;47.642;19.144;2023-01-16T20:12:23;35.38;;;17.50;;
77226;SDS011;66234;47.642;19.144;2023-01-16T20:15:26;39.50;;;18.15;;
77226;SDS011;66234;47.642;19.144;2023-01-16T20:18:32;34.80;;;17.67;;
77226;SDS011;66234;47.642;19.144;2023-01-16T20:21:36;37.20;;;18.23;;